Time;durP1;ratioP1;P1;durP2;ratioP2;P2;SDS_P1;SDS_P2;PMS_P1;PMS_P2;Temp;Humidity;BMP_temperature;BMP_pressure;BME280_temperature;BME280_humidity;BME280_pressure;Samples;Min_cycle;Max_cycle;Signal;HPM_P1;HPM_P2
2021/03/16 00:00:09;;;;;;;33.38;4.32;;;5.50;99.70;;;;;;5106270;28;20100;-72
2021/03/16 00:02:35;;;;;;;23.20;3.35;;;5.40;99.80;;;;;;5101634;28;20220;-72
2021/03/16 00:05:02;;;;;;;33.03;4.55;;;5.50;99.90;;;;;;5099886;28;20052;-72
2021/03/16 00:07:28;;;;;;;31.95;4.50;;;5.60;99.60;;;;;;5105110;28;20048;-72
2021/03/16 00:09:54;;;;;;;22.13;4.13;;;5.60;99.60;;;;;;5105854;28;20100;-72
2021/03/16 00:12:19;;;;;;;26.35;5.00;;;5.60;99.90;;;;;;5105708;28;20483;-72
2021/03/16 00:14:46;;;;;;;31.35;4.18;;;5.50;99.60;;;;;;5105542;28;20040;-72
2021/03/16 00:17:12;;;;;;;29.35;4.30;;;5.50;99.60;;;;;;5105745;28;20071;-72
2021/03/16 00:19:37;;;;;;;29.60;3.97;;;5.50;99.50;;;;;;5095914;28;20041;-72
2021/03/16 00:22:04;;;;;;;23.77;4.55;;;5.60;99.20;;;;;;5105236;28;20094;-72
2021/03/16 00:24:31;;;;;;;17.25;3.60;;;5.50;99.20;;;;;;5105401;28;20052;-72
2021/03/16 00:26:57;;;;;;;18.58;3.58;;;5.60;99.20;;;;;;5105219;28;20052;-72
2021/03/16 00:29:23;;;;;;;24.23;4.03;;;5.60;98.80;;;;;;5105465;28;20545;-72
2021/03/16 00:31:49;;;;;;;28.33;4.43;;;5.70;98.30;;;;;;5105919;28;20040;-72
2021/03/16 00:34:15;;;;;;;25.90;3.63;;;5.70;98.20;;;;;;5094674;28;20060;-72
2021/03/16 00:36:41;;;;;;;21.35;3.75;;;5.80;97.80;;;;;;5105516;28;20078;-72
2021/03/16 00:39:07;;;;;;;19.83;3.03;;;5.80;97.60;;;;;;5105118;28;20540;-72
2021/03/16 00:41:33;;;;;;;20.73;5.95;;;5.80;97.20;;;;;;5100435;28;20068;-72
2021/03/16 00:43:59;;;;;;;16.95;3.17;;;5.80;97.10;;;;;;5105011;28;20056;-72
2021/03/16 00:46:25;;;;;;;19.52;3.38;;;6.00;96.90;;;;;;5086516;28;20048;-72
2021/03/16 00:48:51;;;;;;;18.00;3.60;;;6.00;96.40;;;;;;5097122;28;20070;-72
2021/03/16 00:51:17;;;;;;;19.73;3.92;;;6.00;96.50;;;;;;5109160;28;20048;-72
2021/03/16 00:53:43;;;;;;;19.70;4.07;;;5.90;96.70;;;;;;5109041;28;20051;-73
2021/03/16 00:56:09;;;;;;;25.00;3.72;;;5.90;96.70;;;;;;5108713;28;20059;-72
2021/03/16 00:58:35;;;;;;;17.45;3.88;;;5.90;96.80;;;;;;5108912;28;20051;-72
2021/03/16 01:01:00;;;;;;;18.27;3.40;;;5.80;96.80;;;;;;5109329;28;20070;-72
2021/03/16 01:03:27;;;;;;;19.90;3.63;;;5.70;97.20;;;;;;5099731;28;20036;-72
2021/03/16 01:05:55;;;;;;;16.80;3.08;;;5.70;97.30;;;;;;5108995;28;20036;-72
2021/03/16 01:08:21;;;;;;;26.85;3.58;;;5.70;97.50;;;;;;5093477;28;20048;-72
2021/03/16 01:10:49;;;;;;;24.88;3.28;;;5.60;97.70;;;;;;5090765;28;20055;-72
2021/03/16 01:13:16;;;;;;;23.27;2.92;;;5.70;97.60;;;;;;5103630;28;20047;-72
2021/03/16 01:15:42;;;;;;;25.98;3.53;;;5.60;97.60;;;;;;5108609;28;20066;-72
2021/03/16 01:18:08;;;;;;;16.77;3.28;;;5.60;97.70;;;;;;5108353;28;20051;-72
2021/03/16 01:20:35;;;;;;;18.92;2.60;;;5.60;97.80;;;;;;5102382;28;20044;-72
2021/03/16 01:23:01;;;;;;;19.70;3.78;;;5.60;97.70;;;;;;5108390;28;20065;-73
2021/03/16 01:25:27;;;;;;;22.73;4.13;;;5.60;97.70;;;;;;5093772;28;20048;-72
2021/03/16 01:27:55;;;;;;;18.42;2.90;;;5.60;97.70;;;;;;5108022;28;20092;-72
2021/03/16 01:30:23;;;;;;;21.30;2.90;;;5.60;97.60;;;;;;5108453;28;20074;-72
2021/03/16 01:32:49;;;;;;;19.95;4.25;;;5.60;97.60;;;;;;5108611;28;20067;-72
2021/03/16 01:35:16;;;;;;;19.38;3.40;;;5.70;97.30;;;;;;5108953;28;20055;-72
2021/03/16 01:37:43;;;;;;;21.63;3.42;;;5.70;97.40;;;;;;5107785;28;20048;-72
2021/03/16 01:40:13;;;;;;;19.80;2.85;;;5.70;97.50;;;;;;5108435;28;20052;-72
2021/03/16 01:42:39;;;;;;;23.00;3.10;;;5.70;97.60;;;;;;5108105;28;20052;-72
2021/03/16 01:45:12;;;;;;;17.60;3.25;;;5.60;97.80;;;;;;5108415;28;20048;-72
2021/03/16 01:47:40;;;;;;;15.52;3.47;;;5.60;97.80;;;;;;5107660;28;20067;-72
2021/03/16 01:50:10;;;;;;;18.70;2.90;;;5.70;97.60;;;;;;5108282;28;20044;-72
2021/03/16 01:52:37;;;;;;;17.42;2.80;;;5.70;97.60;;;;;;5108257;28;20042;-72
2021/03/16 01:55:05;;;;;;;13.73;2.83;;;5.70;97.60;;;;;;5107850;28;20048;-72
2021/03/16 01:57:33;;;;;;;27.42;4.10;;;5.70;97.90;;;;;;5106945;28;20047;-72
2021/03/16 01:59:59;;;;;;;17.30;3.67;;;5.70;97.90;;;;;;5094905;28;20533;-72
2021/03/16 02:02:25;;;;;;;16.13;2.85;;;5.80;97.60;;;;;;5107230;28;20135;-72
2021/03/16 02:04:52;;;;;;;22.58;3.45;;;5.80;97.70;;;;;;5107756;28;20055;-72
2021/03/16 02:07:26;;;;;;;15.43;3.15;;;5.70;98.00;;;;;;5107636;28;20051;-72
2021/03/16 02:10:07;;;;;;;16.90;2.85;;;5.80;97.40;;;;;;5090345;28;20047;-72
2021/03/16 02:12:45;;;;;;;17.20;3.10;;;5.90;97.10;;;;;;5107594;28;20141;-72
2021/03/16 02:15:17;;;;;;;18.02;2.58;;;5.90;97.30;;;;;;5107598;28;20044;-72
2021/03/16 02:17:50;;;;;;;20.52;3.10;;;5.90;97.40;;;;;;5107011;28;20123;-72
2021/03/16 02:20:15;;;;;;;16.80;2.85;;;5.90;97.20;;;;;;5107276;28;20052;-72
2021/03/16 02:22:44;;;;;;;22.75;4.15;;;5.90;97.40;;;;;;5099469;28;20047;-72
2021/03/16 02:25:19;;;;;;;19.52;3.42;;;5.80;97.40;;;;;;5088932;28;20056;-72
2021/03/16 02:28:09;;;;;;;15.40;3.28;;;5.80;97.50;;;;;;5106909;28;20048;-72
2021/03/16 02:30:38;;;;;;;12.32;2.72;;;5.80;97.60;;;;;;5123079;28;20051;-72
2021/03/16 02:33:09;;;;;;;12.10;2.75;;;5.90;97.60;;;;;;5107682;28;20062;-72
2021/03/16 02:35:35;;;;;;;22.33;3.33;;;5.80;97.90;;;;;;5101682;28;20511;-72
2021/03/16 02:38:05;;;;;;;18.17;3.10;;;5.80;97.90;;;;;;5099875;28;20052;-72
2021/03/16 02:40:34;;;;;;;18.65;3.25;;;5.80;98.30;;;;;;5107184;28;20033;-72
2021/03/16 02:43:02;;;;;;;18.33;3.33;;;5.80;98.00;;;;;;5107036;28;20059;-72
2021/03/16 02:45:29;;;;;;;20.80;2.80;;;5.90;97.90;;;;;;5106719;28;20043;-72
2021/03/16 02:47:56;;;;;;;17.77;3.42;;;5.80;98.00;;;;;;5106357;28;20083;-72
2021/03/16 02:50:24;;;;;;;18.23;3.00;;;5.80;98.00;;;;;;5093182;28;20046;-72
2021/03/16 02:52:52;;;;;;;14.27;3.42;;;5.80;97.90;;;;;;5094882;28;20045;-72
2021/03/16 02:55:18;;;;;;;19.02;2.85;;;5.90;97.40;;;;;;5092949;28;20040;-72
2021/03/16 02:57:45;;;;;;;18.02;2.88;;;5.90;97.50;;;;;;5106848;28;20042;-72
2021/03/16 03:00:12;;;;;;;18.30;4.43;;;5.80;97.40;;;;;;5106686;28;20059;-72
2021/03/16 03:02:39;;;;;;;16.48;2.50;;;5.80;97.40;;;;;;5088408;28;20040;-72
2021/03/16 03:05:10;;;;;;;16.00;3.30;;;5.80;97.50;;;;;;5106332;28;20043;-72
2021/03/16 03:07:40;;;;;;;19.88;3.28;;;5.80;97.70;;;;;;5106500;28;20071;-72
2021/03/16 03:10:07;;;;;;;16.05;2.60;;;5.80;98.00;;;;;;5106623;28;20048;-72
2021/03/16 03:12:35;;;;;;;22.92;3.03;;;5.80;97.90;;;;;;5107106;28;20108;-72
2021/03/16 03:15:01;;;;;;;19.05;2.60;;;5.80;98.30;;;;;;5107084;28;20078;-72
2021/03/16 03:17:26;;;;;;;15.68;2.80;;;5.80;98.20;;;;;;5107078;28;20506;-72
2021/03/16 03:19:53;;;;;;;18.05;2.58;;;5.80;98.20;;;;;;5106305;28;20039;-72
2021/03/16 03:22:38;;;;;;;21.42;2.88;;;5.80;98.70;;;;;;5098512;28;20069;-72
2021/03/16 03:25:33;;;;;;;15.02;2.75;;;5.80;98.40;;;;;;5104780;28;20044;-72
2021/03/16 03:28:13;;;;;;;12.73;2.70;;;5.80;98.50;;;;;;5099401;28;20060;-72
2021/03/16 03:30:40;;;;;;;17.17;3.05;;;5.80;98.50;;;;;;5106252;28;20048;-72
2021/03/16 03:33:07;;;;;;;21.23;4.05;;;5.80;98.80;;;;;;5106141;28;20157;-72
2021/03/16 03:35:36;;;;;;;21.27;2.92;;;5.80;99.00;;;;;;5106104;28;20044;-72
2021/03/16 03:38:04;;;;;;;20.10;3.72;;;5.70;99.20;;;;;;5087318;28;20070;-72
2021/03/16 03:40:31;;;;;;;15.38;2.58;;;5.70;99.30;;;;;;5106897;28;20044;-72
2021/03/16 03:43:03;;;;;;;20.75;4.88;;;5.70;99.20;;;;;;5106214;28;20043;-72
2021/03/16 03:45:30;;;;;;;16.63;2.45;;;5.70;99.30;;;;;;5105948;28;20073;-72
2021/03/16 03:47:58;;;;;;;17.88;3.47;;;5.80;99.20;;;;;;5106309;28;20103;-72
2021/03/16 03:50:25;;;;;;;18.23;2.95;;;5.70;99.30;;;;;;5106028;28;20043;-72
2021/03/16 03:52:52;;;;;;;19.40;2.78;;;5.80;99.30;;;;;;5105704;28;20036;-72
2021/03/16 03:55:19;;;;;;;20.92;3.83;;;5.70;99.30;;;;;;5106109;28;20122;-72
2021/03/16 03:57:46;;;;;;;14.05;3.20;;;5.70;99.30;;;;;;5106081;28;20074;-72
2021/03/16 04:00:17;;;;;;;15.77;2.78;;;5.70;99.50;;;;;;5105462;28;20050;-72
2021/03/16 04:02:43;;;;;;;20.45;2.78;;;5.70;99.40;;;;;;5105855;28;20040;-72
2021/03/16 04:05:12;;;;;;;16.85;2.38;;;5.70;99.20;;;;;;5106234;28;20069;-72
2021/03/16 04:07:38;;;;;;;16.52;2.97;;;5.70;99.10;;;;;;5105447;28;20058;-72
2021/03/16 04:10:06;;;;;;;14.98;2.60;;;5.70;99.00;;;;;;5105305;28;20567;-72
2021/03/16 04:12:34;;;;;;;12.38;3.03;;;5.70;98.90;;;;;;5105443;28;20086;-72
2021/03/16 04:15:03;;;;;;;20.88;2.50;;;5.60;99.10;;;;;;5105383;28;20066;-72
2021/03/16 04:17:29;;;;;;;22.45;3.17;;;5.60;99.20;;;;;;5105587;28;20043;-72
2021/03/16 04:19:55;;;;;;;19.70;2.85;;;5.70;99.10;;;;;;5105708;28;20100;-72
2021/03/16 04:22:22;;;;;;;16.38;3.58;;;5.70;99.10;;;;;;5100282;28;20040;-72
2021/03/16 04:24:51;;;;;;;23.88;3.33;;;5.60;99.30;;;;;;5098176;28;20052;-72
2021/03/16 04:27:17;;;;;;;22.10;3.40;;;5.60;99.50;;;;;;5105120;28;20070;-72
2021/03/16 04:29:43;;;;;;;22.02;3.28;;;5.60;99.90;;;;;;5105065;28;20488;-72
2021/03/16 04:32:08;;;;;;;24.17;4.50;;;5.70;99.40;;;;;;5105211;28;20419;-72
2021/03/16 04:34:34;;;;;;;17.23;3.25;;;5.70;99.20;;;;;;5105344;28;20055;-72
2021/03/16 04:37:00;;;;;;;21.77;2.53;;;5.70;99.10;;;;;;5105210;28;20044;-72
2021/03/16 04:39:26;;;;;;;23.35;3.45;;;5.80;99.20;;;;;;5104961;28;20051;-72
2021/03/16 04:41:52;;;;;;;15.55;3.17;;;5.70;99.00;;;;;;5105346;28;20036;-72
2021/03/16 04:44:17;;;;;;;16.00;2.85;;;5.70;99.30;;;;;;5104720;28;20040;-72
2021/03/16 04:46:43;;;;;;;18.90;3.45;;;5.70;99.40;;;;;;5105391;28;20036;-72
2021/03/16 04:49:09;;;;;;;23.02;2.85;;;5.60;99.40;;;;;;5105535;28;20044;-72
2021/03/16 04:51:35;;;;;;;20.35;3.15;;;5.60;99.80;;;;;;5105450;28;20048;-72
2021/03/16 04:54:19;;;;;;;16.75;2.67;;;5.60;99.90;;;;;;5105044;28;20051;-72
2021/03/16 04:56:45;;;;;;;18.25;2.92;;;5.60;99.90;;;;;;5105224;28;20135;-72
2021/03/16 04:59:11;;;;;;;24.00;3.15;;;5.50;99.90;;;;;;5104865;28;20040;-72
2021/03/16 05:01:37;;;;;;;17.25;4.00;;;5.60;99.90;;;;;;5105086;28;20066;-71
2021/03/16 05:04:03;;;;;;;15.90;2.65;;;5.60;99.90;;;;;;5105722;28;20040;-72
2021/03/16 05:06:29;;;;;;;16.15;2.78;;;5.50;99.60;;;;;;5105250;28;20050;-71
2021/03/16 05:08:56;;;;;;;14.95;3.13;;;5.60;99.50;;;;;;5105014;28;20047;-72
2021/03/16 05:11:23;;;;;;;21.60;3.13;;;5.60;99.90;;;;;;5104451;28;20059;-72
2021/03/16 05:13:50;;;;;;;17.25;3.97;;;5.50;99.90;;;;;;5104910;28;20036;-72
2021/03/16 05:16:16;;;;;;;18.50;2.78;;;5.50;99.90;;;;;;5104899;28;20069;-72
2021/03/16 05:18:42;;;;;;;23.30;3.05;;;5.50;99.90;;;;;;5104672;28;20040;-72
2021/03/16 05:21:08;;;;;;;24.63;3.42;;;5.60;99.90;;;;;;5104765;28;20048;-72
2021/03/16 05:23:34;;;;;;;21.05;2.95;;;5.60;99.90;;;;;;5097664;28;20047;-72
2021/03/16 05:26:00;;;;;;;20.70;3.15;;;5.50;99.90;;;;;;5097458;28;20048;-72
2021/03/16 05:28:26;;;;;;;17.77;3.25;;;5.50;99.90;;;;;;5104833;28;20040;-72
2021/03/16 05:30:52;;;;;;;14.00;2.55;;;5.50;99.90;;;;;;5104532;28;20098;-72
2021/03/16 05:33:19;;;;;;;17.05;2.78;;;5.50;99.90;;;;;;5092830;28;20597;-72
2021/03/16 05:35:46;;;;;;;24.77;2.90;;;5.60;99.90;;;;;;5102984;28;20036;-72
2021/03/16 05:38:13;;;;;;;19.42;2.67;;;5.50;99.70;;;;;;5107737;28;20043;-72
2021/03/16 05:40:39;;;;;;;15.90;2.35;;;5.50;99.60;;;;;;5108548;28;20069;-72
2021/03/16 05:43:06;;;;;;;18.80;3.03;;;5.50;99.70;;;;;;5088723;28;20040;-71
2021/03/16 05:45:32;;;;;;;16.35;3.03;;;5.50;99.70;;;;;;5101895;28;20040;-71
2021/03/16 05:47:59;;;;;;;18.92;2.83;;;5.50;99.90;;;;;;5105825;28;20077;-74
2021/03/16 05:50:25;;;;;;;20.85;3.17;;;5.50;99.90;;;;;;5082053;28;20065;-76
2021/03/16 05:52:55;;;;;;;18.50;2.42;;;5.50;99.90;;;;;;5101089;28;20523;-78
2021/03/16 05:55:22;;;;;;;17.80;2.53;;;5.60;99.90;;;;;;5113720;27;20043;-75
2021/03/16 05:57:51;;;;;;;17.35;2.95;;;5.60;99.60;;;;;;5105091;28;20063;-78
2021/03/16 06:00:18;;;;;;;14.95;3.25;;;5.60;99.80;;;;;;5102789;27;20074;-74
2021/03/16 06:02:47;;;;;;;14.48;2.65;;;5.70;99.70;;;;;;5101010;28;20494;-83
2021/03/16 06:05:13;;;;;;;16.10;2.72;;;5.60;99.90;;;;;;5101245;27;20318;-81
2021/03/16 06:07:50;;;;;;;17.98;2.85;;;5.60;99.90;;;;;;5103838;27;20048;-79
2021/03/16 06:10:18;;;;;;;23.42;2.95;;;5.60;99.80;;;;;;5100660;28;20048;-78
2021/03/16 06:12:45;;;;;;;21.63;3.33;;;5.60;99.60;;;;;;5099411;28;20148;-80
2021/03/16 06:15:14;;;;;;;24.58;3.35;;;5.70;99.20;;;;;;5099676;27;20069;-81
2021/03/16 06:17:45;;;;;;;23.02;3.20;;;5.60;99.10;;;;;;5102914;28;20047;-80
2021/03/16 06:20:30;;;;;;;24.63;3.65;;;5.60;99.10;;;;;;5099260;27;20074;-79
2021/03/16 06:23:09;;;;;;;23.30;3.40;;;5.50;99.30;;;;;;5098759;28;20070;-77
2021/03/16 06:25:37;;;;;;;20.67;3.28;;;5.50;99.40;;;;;;5104543;27;20062;-76
2021/03/16 06:28:08;;;;;;;17.13;2.47;;;5.50;99.70;;;;;;5100338;28;20052;-79
2021/03/16 06:30:35;;;;;;;20.58;3.80;;;5.50;99.90;;;;;;5102333;28;20056;-78
2021/03/16 06:33:01;;;;;;;18.55;2.90;;;5.50;99.90;;;;;;5095985;28;20303;-77
2021/03/16 06:35:27;;;;;;;21.67;2.80;;;5.40;99.90;;;;;;5097722;28;20059;-78
2021/03/16 06:38:19;;;;;;;24.15;3.17;;;5.50;99.90;;;;;;5100680;27;20055;-78
2021/03/16 06:40:45;;;;;;;22.70;3.25;;;5.50;99.70;;;;;;5102084;28;20082;-78
2021/03/16 06:43:11;;;;;;;24.02;3.40;;;5.50;99.90;;;;;;5096506;28;20044;-79
2021/03/16 06:45:39;;;;;;;15.80;3.17;;;5.50;99.90;;;;;;5097199;28;20109;-78
2021/03/16 06:48:22;;;;;;;17.92;3.10;;;5.60;99.90;;;;;;5098705;28;20048;-79
2021/03/16 06:50:49;;;;;;;24.95;3.88;;;5.60;99.90;;;;;;5104015;27;20255;-78
2021/03/16 06:53:21;;;;;;;24.85;3.80;;;5.50;99.90;;;;;;5102409;28;20040;-78
2021/03/16 06:55:54;;;;;;;20.85;2.63;;;5.50;99.90;;;;;;5102480;28;20051;-78
2021/03/16 06:58:38;;;;;;;19.45;3.30;;;5.40;99.90;;;;;;5099803;28;20074;-78
2021/03/16 07:01:10;;;;;;;17.88;3.35;;;5.40;99.90;;;;;;5104348;27;20055;-78
2021/03/16 07:03:37;;;;;;;15.88;2.88;;;5.40;99.90;;;;;;5097805;28;20047;-74
2021/03/16 07:06:17;;;;;;;15.98;3.33;;;5.50;99.90;;;;;;5076823;28;20044;-73
2021/03/16 07:08:45;;;;;;;23.25;2.88;;;5.40;99.90;;;;;;5099832;28;20043;-74
2021/03/16 07:11:13;;;;;;;18.75;2.70;;;5.40;99.90;;;;;;5102758;28;20539;-73
2021/03/16 07:13:40;;;;;;;21.40;2.92;;;5.40;99.90;;;;;;5098386;28;20103;-73
2021/03/16 07:16:07;;;;;;;14.00;2.45;;;5.30;99.90;;;;;;5082387;28;20063;-74
2021/03/16 07:18:35;;;;;;;17.65;3.63;;;5.30;99.90;;;;;;5097413;28;20040;-74
2021/03/16 07:21:29;;;;;;;17.23;2.72;;;5.30;99.90;;;;;;5102395;28;20128;-74
2021/03/16 07:24:01;;;;;;;17.90;3.00;;;5.50;99.90;;;;;;5094873;28;20560;-74
2021/03/16 07:26:28;;;;;;;19.25;3.30;;;5.50;99.90;;;;;;5067340;28;20039;-74
2021/03/16 07:28:56;;;;;;;16.90;2.67;;;5.50;99.90;;;;;;5099301;28;20044;-74
2021/03/16 07:31:23;;;;;;;16.73;3.17;;;5.70;99.70;;;;;;5087520;28;20052;-74
2021/03/16 07:33:50;;;;;;;22.38;3.15;;;5.90;99.30;;;;;;5099826;28;20044;-73
2021/03/16 07:36:16;;;;;;;18.83;2.83;;;6.00;99.40;;;;;;5086668;28;20036;-74
2021/03/16 07:38:43;;;;;;;15.50;2.88;;;6.10;98.50;;;;;;5099002;28;20052;-74
2021/03/16 07:41:09;;;;;;;14.30;2.30;;;6.20;98.00;;;;;;5087939;28;20048;-75
2021/03/16 07:43:40;;;;;;;17.13;2.95;;;6.50;97.60;;;;;;5099333;28;20071;-74
2021/03/16 07:46:13;;;;;;;17.70;2.40;;;6.50;97.60;;;;;;5092466;28;20047;-77
2021/03/16 07:48:47;;;;;;;13.07;2.20;;;6.60;96.80;;;;;;5090417;28;20059;-75
2021/03/16 07:51:16;;;;;;;17.42;2.88;;;6.50;97.00;;;;;;5087586;28;20043;-75
2021/03/16 07:53:41;;;;;;;14.90;2.25;;;6.50;97.20;;;;;;5097723;28;20035;-76
2021/03/16 07:56:15;;;;;;;11.18;2.35;;;6.40;97.20;;;;;;5084383;28;20277;-75
2021/03/16 07:58:47;;;;;;;18.15;2.75;;;6.50;96.50;;;;;;5096718;28;20040;-74
2021/03/16 08:01:13;;;;;;;16.63;3.17;;;6.40;97.10;;;;;;5087261;28;20048;-74
2021/03/16 08:03:41;;;;;;;24.73;3.40;;;6.50;96.60;;;;;;5098752;28;20036;-75
2021/03/16 08:06:07;;;;;;;24.15;3.22;;;6.50;96.50;;;;;;5086194;28;20131;-75
2021/03/16 08:08:42;;;;;;;16.95;2.92;;;6.70;96.40;;;;;;5097970;28;20075;-75
2021/03/16 08:11:12;;;;;;;16.33;1.85;;;6.80;96.50;;;;;;5090039;28;20079;-73
2021/03/16 08:13:39;;;;;;;23.15;3.33;;;6.90;96.80;;;;;;5088152;28;20047;-74
2021/03/16 08:16:13;;;;;;;15.18;2.28;;;7.00;95.40;;;;;;5077911;28;20048;-75
2021/03/16 08:18:39;;;;;;;15.45;2.28;;;7.20;95.60;;;;;;5083794;28;20048;-75
2021/03/16 08:21:09;;;;;;;9.80;1.85;;;7.30;95.00;;;;;;5096562;28;20056;-75
2021/03/16 08:23:36;;;;;;;;;;;7.40;94.00;;;;;;5092743;28;20094;-74
2021/03/16 08:26:03;;;;;;;15.68;1.95;;;7.20;91.90;;;;;;5090454;28;19920;-75
2021/03/16 08:28:29;;;;;;;13.32;1.90;;;7.30;92.90;;;;;;5077377;28;20048;-75
2021/03/16 08:30:55;;;;;;;14.52;2.17;;;7.20;93.40;;;;;;5078501;28;20111;-75
2021/03/16 08:33:21;;;;;;;14.07;2.00;;;7.20;93.30;;;;;;5081753;28;20056;-75
2021/03/16 08:35:50;;;;;;;21.60;2.53;;;7.00;94.00;;;;;;5063509;28;20056;-75
2021/03/16 08:38:26;;;;;;;12.65;2.75;;;6.80;94.30;;;;;;5066452;28;20041;-74
2021/03/16 08:41:10;;;;;;;12.05;2.50;;;6.90;94.30;;;;;;5073510;28;20048;-74
2021/03/16 08:43:37;;;;;;;14.43;2.88;;;7.00;95.10;;;;;;5073357;28;20052;-74
2021/03/16 08:46:04;;;;;;;14.68;2.35;;;7.20;95.20;;;;;;5080040;28;20051;-74
2021/03/16 08:48:32;;;;;;;13.75;2.00;;;7.40;93.30;;;;;;5069531;28;20147;-74
2021/03/16 08:50:58;;;;;;;12.27;1.63;;;7.30;93.80;;;;;;5085681;28;20328;-75
2021/03/16 08:53:25;;;;;;;11.30;3.00;;;7.40;94.00;;;;;;5077400;28;20052;-75
2021/03/16 08:55:53;;;;;;;10.45;1.52;;;7.30;92.70;;;;;;5076034;28;20116;-75
2021/03/16 08:58:20;;;;;;;10.05;1.73;;;7.60;92.30;;;;;;5077017;28;20057;-75
2021/03/16 09:00:47;;;;;;;7.68;1.63;;;7.60;91.90;;;;;;5069866;28;20087;-74
2021/03/16 09:03:13;;;;;;;10.30;1.70;;;7.60;92.30;;;;;;5061484;28;20125;-75
2021/03/16 09:05:40;;;;;;;11.98;2.17;;;7.60;93.00;;;;;;5068241;28;20131;-74
2021/03/16 09:08:07;;;;;;;9.20;1.42;;;7.60;91.60;;;;;;5070238;28;20045;-74
2021/03/16 09:10:33;;;;;;;10.57;2.00;;;7.60;92.10;;;;;;5079204;28;20135;-74
2021/03/16 09:13:01;;;;;;;12.20;1.80;;;7.70;91.70;;;;;;5072793;28;20055;-75
2021/03/16 09:15:32;;;;;;;8.10;1.65;;;7.70;91.00;;;;;;5068646;28;20132;-75
2021/03/16 09:18:05;;;;;;;12.40;2.00;;;7.80;91.20;;;;;;5077081;28;20140;-76
2021/03/16 09:20:35;;;;;;;11.20;2.65;;;7.80;91.10;;;;;;5068349;28;20066;-75
2021/03/16 09:23:05;;;;;;;10.85;1.58;;;7.90;91.50;;;;;;5085208;28;20056;-74
2021/03/16 09:25:32;;;;;;;12.93;1.67;;;8.10;92.10;;;;;;5087523;28;20040;-74
2021/03/16 09:28:00;;;;;;;9.68;1.63;;;8.40;91.50;;;;;;5091550;28;20040;-75
2021/03/16 09:30:53;;;;;;;11.07;2.05;;;8.60;90.80;;;;;;5086469;28;20044;-78
2021/03/16 09:33:22;;;;;;;10.43;2.10;;;8.80;91.60;;;;;;5076207;28;20072;-76
2021/03/16 09:35:58;;;;;;;10.38;1.73;;;8.90;91.40;;;;;;5092764;27;20040;-76
2021/03/16 09:38:25;;;;;;;7.00;1.98;;;9.00;91.60;;;;;;5085422;28;20060;-80
2021/03/16 09:40:52;;;;;;;11.63;2.22;;;9.20;90.70;;;;;;5083234;28;20044;-79
2021/03/16 09:43:23;;;;;;;12.02;2.00;;;9.40;90.40;;;;;;5099004;28;20093;-78
2021/03/16 09:45:53;;;;;;;12.60;2.85;;;9.60;89.90;;;;;;5097819;28;20426;-81
2021/03/16 09:48:19;;;;;;;6.95;1.77;;;9.60;86.40;;;;;;5107450;28;20048;-77
2021/03/16 09:50:46;;;;;;;11.35;2.10;;;9.80;86.30;;;;;;5102819;27;20078;-76
2021/03/16 09:53:17;;;;;;;7.20;1.30;;;10.00;84.30;;;;;;5102907;27;20047;-77
2021/03/16 09:55:43;;;;;;;6.70;1.88;;;10.10;84.70;;;;;;5103077;27;20082;-78
2021/03/16 09:58:20;;;;;;;8.52;1.55;;;10.40;81.90;;;;;;5102920;27;20052;-76
2021/03/16 10:00:50;;;;;;;7.13;1.60;;;10.60;80.40;;;;;;5089905;28;20062;-81
2021/03/16 10:03:18;;;;;;;7.43;1.58;;;10.80;77.60;;;;;;5098927;28;20040;-81
2021/03/16 10:05:45;;;;;;;9.15;1.42;;;10.90;77.00;;;;;;5099689;27;20348;-78
2021/03/16 10:08:27;;;;;;;8.93;1.83;;;10.90;78.50;;;;;;5103517;27;20044;-76
2021/03/16 10:10:54;;;;;;;10.93;1.52;;;10.90;79.10;;;;;;5083849;28;20048;-76
2021/03/16 10:13:35;;;;;;;7.75;1.65;;;10.90;79.90;;;;;;5082147;28;20065;-75
2021/03/16 10:16:13;;;;;;;7.53;2.53;;;10.80;80.40;;;;;;5100737;28;20069;-76
2021/03/16 10:18:42;;;;;;;7.90;1.65;;;10.70;79.60;;;;;;5095160;28;20036;-76
2021/03/16 10:21:08;;;;;;;7.82;1.50;;;10.40;79.70;;;;;;5085663;28;20059;-76
2021/03/16 10:23:34;;;;;;;9.88;1.55;;;10.20;81.90;;;;;;5081445;28;20079;-75
2021/03/16 10:26:04;;;;;;;11.35;2.28;;;10.00;82.50;;;;;;5084085;28;20048;-76
2021/03/16 10:28:36;;;;;;;9.60;1.42;;;9.90;83.00;;;;;;5082618;28;20053;-77
2021/03/16 10:31:15;;;;;;;11.65;1.83;;;9.70;83.90;;;;;;5078988;28;20044;-77
2021/03/16 10:33:42;;;;;;;6.75;1.90;;;9.70;85.10;;;;;;5063510;28;20049;-76
2021/03/16 10:36:09;;;;;;;9.40;1.60;;;9.90;86.70;;;;;;5092713;28;20261;-76
2021/03/16 10:38:35;;;;;;;12.20;2.35;;;10.00;85.20;;;;;;5091887;28;20530;-77
2021/03/16 10:41:01;;;;;;;12.93;1.60;;;10.10;84.00;;;;;;5083110;28;20048;-76
2021/03/16 10:43:27;;;;;;;9.70;2.28;;;10.30;78.90;;;;;;5089721;28;20045;-77
2021/03/16 10:45:54;;;;;;;7.35;1.33;;;10.00;78.20;;;;;;5078450;28;20399;-76
2021/03/16 10:48:21;;;;;;;12.50;1.65;;;9.90;79.90;;;;;;5098456;28;20052;-76
2021/03/16 10:50:47;;;;;;;8.25;1.35;;;9.80;80.70;;;;;;5080307;28;20043;-76
2021/03/16 10:53:14;;;;;;;6.93;1.75;;;9.80;81.20;;;;;;5094617;28;20343;-75
2021/03/16 10:55:40;;;;;;;8.07;1.88;;;9.80;80.60;;;;;;5083676;28;20048;-76
2021/03/16 10:58:05;;;;;;;6.28;1.40;;;9.70;77.30;;;;;;5086221;28;20052;-76
2021/03/16 11:00:31;;;;;;;8.85;1.65;;;9.50;77.80;;;;;;5086435;28;20050;-76
2021/03/16 11:02:57;;;;;;;10.13;1.60;;;9.30;81.50;;;;;;5094527;28;20049;-76
2021/03/16 11:05:23;;;;;;;7.25;1.42;;;9.40;83.80;;;;;;5071416;28;20044;-76
2021/03/16 11:07:49;;;;;;;9.50;1.40;;;9.40;81.00;;;;;;5089319;28;20476;-77
2021/03/16 11:10:14;;;;;;;9.45;1.65;;;9.50;81.10;;;;;;5074885;28;20052;-77
2021/03/16 11:12:40;;;;;;;10.57;1.60;;;9.40;81.70;;;;;;5080548;28;20063;-76
2021/03/16 11:15:07;;;;;;;6.80;1.52;;;9.30;82.80;;;;;;5068957;28;20504;-76
2021/03/16 11:17:33;;;;;;;4.65;1.50;;;9.20;82.90;;;;;;5098008;28;20040;-75
2021/03/16 11:19:58;;;;;;;6.45;1.10;;;9.20;82.30;;;;;;5085658;28;20065;-74
2021/03/16 11:22:24;;;;;;;4.18;1.10;;;9.30;77.80;;;;;;5111999;28;20044;-80
2021/03/16 11:24:50;;;;;;;6.47;0.95;;;9.40;77.60;;;;;;5096944;28;20131;-80
2021/03/16 11:27:16;;;;;;;9.48;1.40;;;9.80;76.20;;;;;;5102506;28;20044;-81
2021/03/16 11:29:43;;;;;;;5.10;1.23;;;9.50;74.20;;;;;;5095605;28;20047;-87
2021/03/16 11:32:08;;;;;;;7.35;1.30;;;9.30;73.60;;;;;;5104066;27;20051;-75
2021/03/16 11:34:35;;;;;;;6.45;1.75;;;9.20;76.40;;;;;;5099487;28;20040;-79
2021/03/16 11:37:00;;;;;;;6.75;1.25;;;9.30;78.20;;;;;;5105067;28;20035;-77
2021/03/16 11:39:26;;;;;;;13.35;2.65;;;9.50;74.70;;;;;;5096879;28;20063;-75
2021/03/16 11:41:52;;;;;;;8.52;1.85;;;9.50;77.40;;;;;;5103171;28;20044;-76
2021/03/16 11:44:18;;;;;;;9.45;1.98;;;9.70;77.40;;;;;;5096711;28;20040;-79
2021/03/16 11:46:44;;;;;;;6.43;1.58;;;9.80;74.70;;;;;;5082981;28;20036;-80
2021/03/16 11:49:10;;;;;;;7.05;1.27;;;9.90;73.60;;;;;;5095116;28;20090;-81
2021/03/16 11:51:36;;;;;;;5.45;1.60;;;9.80;75.10;;;;;;5080126;28;20551;-80
2021/03/16 11:54:02;;;;;;;9.95;1.67;;;9.70;74.50;;;;;;5096136;28;20087;-78
2021/03/16 11:56:28;;;;;;;5.10;1.00;;;9.70;74.10;;;;;;5097775;28;20534;-80
2021/03/16 11:58:54;;;;;;;3.78;1.75;;;9.80;76.30;;;;;;5100719;28;20047;-78
2021/03/16 12:01:20;;;;;;;11.75;2.97;;;9.90;76.20;;;;;;5085369;28;20109;-79
2021/03/16 12:03:45;;;;;;;10.57;1.83;;;10.20;79.20;;;;;;5098294;28;20043;-79
2021/03/16 12:06:11;;;;;;;9.45;1.90;;;10.60;72.90;;;;;;5095189;28;20052;-78
2021/03/16 12:08:38;;;;;;;8.73;1.40;;;10.80;74.10;;;;;;5103526;28;20131;-78
2021/03/16 12:11:04;;;;;;;7.60;1.75;;;11.00;72.90;;;;;;5077017;28;20444;-79
2021/03/16 12:13:30;;;;;;;8.50;1.50;;;11.10;72.30;;;;;;5093971;28;20040;-80
2021/03/16 12:15:56;;;;;;;8.88;1.50;;;11.10;71.00;;;;;;5094713;28;20103;-80
2021/03/16 12:18:22;;;;;;;10.38;2.72;;;10.80;71.60;;;;;;5104539;28;20041;-80
2021/03/16 12:20:49;;;;;;;5.88;1.40;;;10.70;74.10;;;;;;5081164;28;20098;-80
2021/03/16 12:23:16;;;;;;;6.72;1.30;;;10.90;73.90;;;;;;5078060;28;20044;-80
2021/03/16 12:25:44;;;;;;;6.25;1.27;;;10.90;71.00;;;;;;5085456;28;20135;-80
2021/03/16 12:28:10;;;;;;;7.30;1.50;;;10.80;72.30;;;;;;5093887;28;20067;-80
2021/03/16 12:30:37;;;;;;;7.63;1.48;;;11.00;73.90;;;;;;5076117;28;20063;-81
2021/03/16 12:33:04;;;;;;;6.65;1.45;;;11.10;71.60;;;;;;5088298;28;20079;-80
2021/03/16 12:35:30;;;;;;;9.05;1.20;;;11.00;69.80;;;;;;5068515;28;20052;-80
2021/03/16 12:37:56;;;;;;;8.23;1.95;;;10.90;70.30;;;;;;5096516;28;20040;-81
2021/03/16 12:40:22;;;;;;;8.93;1.27;;;10.70;71.60;;;;;;5075048;28;20040;-80
2021/03/16 12:42:48;;;;;;;7.38;1.65;;;10.60;73.00;;;;;;5095464;28;20141;-79
2021/03/16 12:45:14;;;;;;;8.50;1.60;;;10.60;73.20;;;;;;5054224;28;20049;-81
2021/03/16 12:47:40;;;;;;;5.97;1.20;;;10.50;74.00;;;;;;5117039;28;20103;-78
2021/03/16 12:50:06;;;;;;;8.77;1.80;;;10.40;74.90;;;;;;5100384;28;20156;-80
2021/03/16 12:52:32;;;;;;;10.68;2.15;;;10.50;76.80;;;;;;5101735;28;20048;-80